»·PEaware :: N6218B KBOI-S21

N6218B :: KBOI-S21

FLIGHT INFORMATION

Flight Status: Arrived
Operator: Privately registered:
United States
More flights under this callsign
Pilot: Anonymous 16594 (16594)
Aircraft: CESSNA 182 SKYLANE
(C182)
More flights by this aircraft type
Origin: KBOI Boise Air Terminal/Gowen
United States
Destination: S21 Sunriver
United States
More flights between these airports :: More routes between these airports
Route: BOI V330 ILR V269 DSD
File this flight plan on PilotEdge
Remarks:
Altitude:
(Current/Filed)
10,000ft
Speed:
(Current/Filed)
140kts
Departed: 28-Jan-18 12:00 PM
Arrived: 28-Jan-18 02:01 PM
Distance/Time
Traveled:
228nm/2:00
Distance/Time
To Go:
Arrived

Flight Plot

Page will automatically refresh every two minutes.

Flight plan parsing failed; only flown route is shown


Map Options




Map Legend


Flown Route
Filed Route
Departure Airport
Arrival Airport
Navaid (VOR, NDB)
Fix

Horizontal Profiles

Position Reports

Time Latitude Longitude Heading Altitude Ground
Speed
28-Jan-18 11:40 43.570073 -116.226598 184 2837ft 0kts
28-Jan-18 11:41 43.570071 -116.226598 184 2837ft 0kts
28-Jan-18 11:42 43.570067 -116.226599 184 2837ft 0kts
28-Jan-18 11:43 43.570063 -116.226599 184 2837ft 0kts
28-Jan-18 11:44 43.570059 -116.226599 184 2837ft 0kts
28-Jan-18 11:45 43.570054 -116.226600 184 2837ft 0kts
28-Jan-18 11:46 43.570050 -116.226600 184 2837ft 0kts
28-Jan-18 11:47 43.570046 -116.226601 184 2837ft 0kts
28-Jan-18 11:48 43.570042 -116.226601 184 2837ft 0kts
28-Jan-18 11:49 43.570037 -116.226602 184 2837ft 0kts
28-Jan-18 11:50 43.570034 -116.226602 184 2837ft 0kts
28-Jan-18 11:51 43.570029 -116.226603 184 2837ft 0kts
28-Jan-18 11:52 43.570026 -116.226603 184 2837ft 0kts
28-Jan-18 11:53 43.570021 -116.226603 184 2837ft 0kts
28-Jan-18 11:54 43.570018 -116.226604 184 2837ft 0kts
28-Jan-18 11:55 43.570014 -116.226604 184 2837ft 0kts
28-Jan-18 11:56 43.570010 -116.226605 184 2837ft 0kts
28-Jan-18 11:57 43.570006 -116.226605 184 2837ft 0kts
28-Jan-18 11:58 43.570001 -116.226606 184 2837ft 0kts
28-Jan-18 11:59 43.569997 -116.226606 184 2837ft 0kts
28-Jan-18 12:00 43.569993 -116.226606 184 2837ft 0kts
28-Jan-18 12:01 43.569053 -116.227612 294 2837ft 15kts
28-Jan-18 12:02 43.570184 -116.233188 295 2837ft 21kts
28-Jan-18 12:03 43.570752 -116.236072 154 2837ft 0kts
28-Jan-18 12:04 43.570695 -116.236058 196 2837ft 0kts
28-Jan-18 12:05 43.570690 -116.236060 196 2837ft 0kts
28-Jan-18 12:06 43.566819 -116.226959 113 2859ft 96kts
28-Jan-18 12:07 43.553902 -116.186592 112 3405ft 125kts
28-Jan-18 12:08 43.540098 -116.144509 100 4096ft 113kts
28-Jan-18 12:09 43.528421 -116.106882 111 4886ft 103kts
28-Jan-18 12:10 43.516534 -116.070808 112 5692ft 102kts
28-Jan-18 12:11 43.505604 -116.035849 118 6487ft 98kts
28-Jan-18 12:12 43.488428 -116.046205 263 7304ft 95kts
28-Jan-18 12:13 43.486784 -116.082256 265 8108ft 93kts
28-Jan-18 12:14 43.500102 -116.109811 317 8873ft 95kts
28-Jan-18 12:15 43.522235 -116.132112 318 9512ft 100kts
28-Jan-18 12:16 43.541308 -116.159450 312 10111ft 98kts
28-Jan-18 12:17 43.552998 -116.198064 274 10016ft 128kts
28-Jan-18 12:18 43.554289 -116.247341 272 10001ft 128kts
28-Jan-18 12:19 43.555570 -116.296789 272 9999ft 129kts
28-Jan-18 12:20 43.556836 -116.346438 272 10000ft 129kts
28-Jan-18 12:21 43.558071 -116.395968 272 9999ft 129kts
28-Jan-18 12:22 43.559300 -116.445486 272 9999ft 129kts
28-Jan-18 12:23 43.560497 -116.495194 272 10000ft 129kts
28-Jan-18 12:24 43.561677 -116.544752 272 10002ft 129kts
28-Jan-18 12:25 43.562839 -116.594209 272 10008ft 129kts
28-Jan-18 12:26 43.563975 -116.643798 272 10019ft 129kts
28-Jan-18 12:27 43.565085 -116.693373 272 10021ft 129kts
28-Jan-18 12:28 43.566182 -116.743183 272 10020ft 129kts
28-Jan-18 12:29 43.567255 -116.792789 271 10019ft 129kts
28-Jan-18 12:30 43.568307 -116.842457 271 10019ft 130kts
28-Jan-18 12:31 43.569369 -116.893647 271 10016ft 134kts
28-Jan-18 12:32 43.570425 -116.945339 271 10015ft 134kts
28-Jan-18 12:33 43.571453 -116.996780 271 10014ft 134kts
28-Jan-18 12:34 43.572491 -117.048325 271 10010ft 134kts
28-Jan-18 12:35 43.573452 -117.099746 271 10012ft 133kts
28-Jan-18 12:36 43.574405 -117.151200 271 10014ft 134kts
28-Jan-18 12:37 43.575325 -117.202547 271 10013ft 134kts
28-Jan-18 12:38 43.576228 -117.253924 271 10013ft 134kts
28-Jan-18 12:39 43.577111 -117.305391 271 10012ft 133kts
28-Jan-18 12:40 43.577965 -117.356493 271 10010ft 133kts
28-Jan-18 12:41 43.578795 -117.407547 271 10010ft 133kts
28-Jan-18 12:42 43.579607 -117.458777 270 10009ft 133kts
28-Jan-18 12:43 43.580391 -117.509840 270 10007ft 133kts
28-Jan-18 12:44 43.581153 -117.560926 270 10006ft 132kts
28-Jan-18 12:45 43.581889 -117.611816 270 10001ft 132kts
28-Jan-18 12:46 43.582601 -117.662569 270 9998ft 132kts
28-Jan-18 12:47 43.583292 -117.713495 270 9994ft 132kts
28-Jan-18 12:48 43.583962 -117.764258 270 9992ft 132kts
28-Jan-18 12:49 43.584610 -117.815188 270 9990ft 132kts
28-Jan-18 12:50 43.585233 -117.865896 270 9988ft 132kts
28-Jan-18 12:51 43.585828 -117.916416 270 10002ft 130kts
28-Jan-18 12:52 43.586399 -117.966637 270 10003ft 131kts
28-Jan-18 12:53 43.586942 -118.016993 270 10001ft 131kts
28-Jan-18 12:54 43.587482 -118.067569 270 9998ft 131kts
28-Jan-18 12:55 43.587983 -118.117927 270 9997ft 131kts
28-Jan-18 12:56 43.588465 -118.168321 270 9995ft 131kts
28-Jan-18 12:57 43.588928 -118.218868 270 9993ft 131kts
28-Jan-18 12:58 43.589371 -118.269312 270 9992ft 131kts
28-Jan-18 12:59 43.589787 -118.319924 269 9980ft 132kts
28-Jan-18 13:00 43.590181 -118.370661 269 9979ft 132kts
28-Jan-18 13:01 43.590558 -118.421439 269 9979ft 132kts
28-Jan-18 13:02 43.590915 -118.472363 269 9979ft 132kts
28-Jan-18 13:03 43.591239 -118.522908 269 9980ft 132kts
28-Jan-18 13:04 43.591563 -118.574031 269 9980ft 132kts
28-Jan-18 13:05 43.591846 -118.624874 269 9980ft 132kts
28-Jan-18 13:06 43.592111 -118.675735 268 9981ft 132kts
28-Jan-18 13:07 43.592357 -118.726828 268 9980ft 132kts
28-Jan-18 13:08 43.592575 -118.777869 268 9981ft 133kts
28-Jan-18 13:09 43.592769 -118.829151 268 9981ft 133kts
28-Jan-18 13:10 43.592943 -118.880622 268 9981ft 134kts
28-Jan-18 13:11 43.593095 -118.931961 268 9981ft 134kts
28-Jan-18 13:12 43.600791 -118.981838 288 9983ft 136kts
28-Jan-18 13:13 43.615227 -119.030291 287 9981ft 136kts
28-Jan-18 13:14 43.629384 -119.078477 287 10000ft 135kts
28-Jan-18 13:15 43.643555 -119.126922 287 9998ft 136kts
28-Jan-18 13:16 43.657710 -119.175374 287 9997ft 136kts
28-Jan-18 13:17 43.671863 -119.223920 287 9995ft 136kts
28-Jan-18 13:18 43.686074 -119.272763 287 9992ft 136kts
28-Jan-18 13:19 43.700182 -119.321339 286 9989ft 136kts
28-Jan-18 13:20 43.714290 -119.370020 286 9986ft 136kts
28-Jan-18 13:21 43.728340 -119.418587 286 9983ft 136kts
28-Jan-18 13:22 43.742386 -119.467241 286 9980ft 136kts
28-Jan-18 13:23 43.756445 -119.516025 286 9978ft 136kts
28-Jan-18 13:24 43.770393 -119.564530 286 9974ft 135kts
28-Jan-18 13:25 43.784324 -119.613067 286 9971ft 135kts
28-Jan-18 13:26 43.798282 -119.661793 286 9969ft 136kts
28-Jan-18 13:27 43.812185 -119.710419 286 9966ft 136kts
28-Jan-18 13:28 43.826116 -119.759229 285 9963ft 136kts
28-Jan-18 13:29 43.839975 -119.807893 285 9960ft 135kts
28-Jan-18 13:30 43.853765 -119.856413 285 9958ft 135kts
28-Jan-18 13:31 43.867570 -119.905079 285 9955ft 135kts
28-Jan-18 13:32 43.881301 -119.953578 285 9953ft 135kts
28-Jan-18 13:33 43.895063 -120.002282 285 9950ft 135kts
28-Jan-18 13:34 43.908765 -120.050868 285 9946ft 135kts
28-Jan-18 13:35 43.922434 -120.099432 285 9944ft 135kts
28-Jan-18 13:36 43.936137 -120.148215 285 9940ft 135kts
28-Jan-18 13:37 43.949441 -120.195638 285 10074ft 131kts
28-Jan-18 13:38 43.962884 -120.243734 285 10056ft 134kts
28-Jan-18 13:39 43.976459 -120.292333 285 10052ft 135kts
28-Jan-18 13:40 43.989987 -120.340867 285 10048ft 135kts
28-Jan-18 13:41 44.003536 -120.389571 285 10045ft 134kts
28-Jan-18 13:42 44.016976 -120.437987 285 10039ft 134kts
28-Jan-18 13:43 44.030376 -120.486357 285 10036ft 134kts
28-Jan-18 13:44 44.031154 -120.535407 252 10035ft 128kts
28-Jan-18 13:45 44.022062 -120.581900 253 9672ft 115kts
28-Jan-18 13:46 44.015062 -120.623264 252 9057ft 106kts
28-Jan-18 13:47 44.008259 -120.664339 252 8490ft 120kts
28-Jan-18 13:48 44.000690 -120.710727 252 7896ft 121kts
28-Jan-18 13:49 43.993012 -120.757232 252 7859ft 131kts
28-Jan-18 13:50 43.984677 -120.807930 253 7848ft 136kts
28-Jan-18 13:51 43.976174 -120.859443 254 7843ft 139kts
28-Jan-18 13:52 43.967393 -120.912528 253 7840ft 139kts
28-Jan-18 13:53 43.958789 -120.964315 253 7842ft 137kts
28-Jan-18 13:54 43.950170 -121.016048 253 7843ft 137kts
28-Jan-18 13:55 43.941558 -121.067584 253 7844ft 137kts
28-Jan-18 13:56 43.933579 -121.115473 252 7445ft 108kts
28-Jan-18 13:57 43.928207 -121.147250 251 7045ft 100kts
28-Jan-18 13:58 43.920593 -121.192410 252 6492ft 106kts
28-Jan-18 13:59 43.913839 -121.232445 251 6451ft 102kts
28-Jan-18 14:00 43.908821 -121.262204 251 6460ft 92kts
28-Jan-18 14:01 43.901768 -121.303681 251 6470ft 98kts
28-Jan-18 14:02 43.896234 -121.336194 251 6463ft 107kts
28-Jan-18 14:03 43.902084 -121.377098 291 6122ft 109kts
28-Jan-18 14:04 43.912056 -121.414804 278 5531ft 103kts
28-Jan-18 14:05 43.899346 -121.443804 196 4638ft 71kts
28-Jan-18 14:06 43.883690 -121.450191 191 4277ft 55kts
28-Jan-18 14:07 43.873621 -121.454216 239 4167ft 8kts
28-Jan-18 14:08 43.874466 -121.454414 16 4167ft 7kts
28-Jan-18 14:09 43.875193 -121.454375 188 4167ft 0kts
28-Jan-18 14:10 43.875006 -121.454448 196 4167ft 0kts
28-Jan-18 14:11 43.875006 -121.454448 196 4167ft 0kts
28-Jan-18 14:12 43.875006 -121.454448 196 4167ft 0kts
28-Jan-18 14:13 43.875006 -121.454448 196 4167ft 0kts
28-Jan-18 14:14 43.875006 -121.454448 196 4167ft 0kts
28-Jan-18 14:15 43.875006 -121.454448 196 4167ft 0kts
28-Jan-18 14:16 43.875006 -121.454448 196 4167ft 0kts
28-Jan-18 14:17 43.875006 -121.454448 196 4167ft 0kts
28-Jan-18 14:18 43.875006 -121.454448 196 4167ft 0kts
28-Jan-18 14:19 43.875006 -121.454448 196 4167ft 0kts

Navigation Log

Ident Type
Flight plan parsing failed, navigation log unavailable